This is the latest recevied weather packets stored in our database for station/object EA1GLE. If no packets are shown the sender has not sent any weather packets the latest 10 day(s).
| Time | Temp. | Humidity | Pressure | Rain* | Wind** | Luminosity | Snow |
|---|---|---|---|---|---|---|---|
| 1777337104 | 12.22° C | 96% | 1017.5 hPa | 0 mm | - | 0 W/m² | - |
| 1777335483 | 12.22° C | 96% | 1017.9 hPa | 0 mm | - | 0 W/m² | - |
| 1777327204 | 13.33° C | 91% | 1019.5 hPa | 0 mm | - | 0 W/m² | - |
| 1777322163 | 13.89° C | 86% | 1018.7 hPa | 0 mm | - | 0 W/m² | - |
| 1777320544 | 13.33° C | 86% | 1018.3 hPa | 0 mm | - | 0 W/m² | - |
| 1777320004 | 13.89° C | 86% | 1018 hPa | 0 mm | - | 0 W/m² | - |
| 1777316404 | 15° C | 83% | 1017.9 hPa | 0 mm | - | 0 W/m² | - |
| 1777316178 | 15° C | 83% | 1018.1 hPa | 0 mm | - | 0 W/m² | - |
| 1777314963 | 15° C | 81% | 1018.2 hPa | 0 mm | - | 6 W/m² | - |
| 1777311904 | 15° C | 83% | 1018.2 hPa | 0 mm | - | 51 W/m² | - |
| 1777308977 | 15° C | 84% | 1018.4 hPa | 0 mm | - | 48 W/m² | - |
| 1777307763 | 15° C | 86% | 1017.8 hPa | 0 mm | - | 91 W/m² | - |
| 1777307223 | 15° C | 88% | 1017.8 hPa | 0.25 mm | - | 187 W/m² | - |
| 1777305604 | 14.44° C | 89% | 1017.9 hPa | 0.25 mm | - | 127 W/m² | - |
| 1777301644 | 15.56° C | 85% | 1018.7 hPa | 0.76 mm | - | 113 W/m² | - |
| 1777298943 | 17.78° C | 76% | 1018.8 hPa | 0 mm | - | 171 W/m² | - |
| 1777295883 | 17.78° C | 73% | 1018.5 hPa | 0 mm | - | 207 W/m² | - |
| 1777295343 | 19.44° C | 68% | 1018.8 hPa | 0 mm | - | 289 W/m² | - |
| 1777292823 | 20° C | 65% | 1018.6 hPa | 0 mm | - | 147 W/m² | - |
| 1777289764 | 21.67° C | 60% | 1019.5 hPa | 0 mm | - | 816 W/m² | - |
| 1777285218 | 20.56° C | 64% | 1019.9 hPa | 0 mm | - | 291 W/m² | - |
| 1777281483 | 18.89° C | 68% | 1020.5 hPa | 0 mm | - | 618 W/m² | - |
| 1777277884 | 16.67° C | 74% | 1020.4 hPa | 0 mm | - | 176 W/m² | - |
| 1777273744 | 14.44° C | 79% | 1020.6 hPa | 0 mm | - | 110 W/m² | - |
* Rain latest hour (hover to see other rain measurements)
** Current wind speed in m/s (hover to see current wind gust speed)